Time;durP1;ratioP1;P1;durP2;ratioP2;P2;SDS_P1;SDS_P2;PMS_P1;PMS_P2;Temp;Humidity;BMP_temperature;BMP_pressure;BME280_temperature;BME280_humidity;BME280_pressure;Samples;Min_cycle;Max_cycle;Signal;HPM_P1;HPM_P2
2022/08/24 00:00:52;;;;;;;9.80;5.82;;;;;;;;;;5034905;28;20105;-81
2022/08/24 00:03:17;;;;;;;10.70;5.50;;;;;;;;;;5034294;28;20029;-80
2022/08/24 00:05:43;;;;;;;10.85;5.45;;;;;;;;;;5042111;28;20034;-80
2022/08/24 00:08:08;;;;;;;11.32;5.85;;;;;;;;;;5055737;28;20479;-79
2022/08/24 00:10:34;;;;;;;11.48;6.20;;;;;;;;;;5003373;28;20041;-80
2022/08/24 00:12:59;;;;;;;14.52;5.70;;;;;;;;;;5016635;28;20485;-79
2022/08/24 00:15:25;;;;;;;11.90;5.53;;;;;;;;;;5057870;28;20030;-80
2022/08/24 00:17:50;;;;;;;9.85;5.60;;;;;;;;;;5044741;28;20515;-80
2022/08/24 00:20:16;;;;;;;10.25;5.97;;;;;;;;;;5018445;28;20492;-80
2022/08/24 00:22:42;;;;;;;8.60;5.90;;;;;;;;;;5046477;28;20056;-80
2022/08/24 00:25:08;;;;;;;8.45;5.65;;;;;;;;;;5017729;28;20044;-80
2022/08/24 00:27:35;;;;;;;8.68;5.80;;;;;;;;;;5018994;28;20029;-81
2022/08/24 00:30:00;;;;;;;9.00;5.97;;;;;;;;;;5014158;28;20045;-80
2022/08/24 00:32:28;;;;;;;10.70;5.88;;;;;;;;;;5041089;28;20473;-80
2022/08/24 00:34:54;;;;;;;12.18;6.18;;;;;;;;;;5014634;28;20038;-80
2022/08/24 00:37:20;;;;;;;7.93;6.13;;;;;;;;;;5032849;28;20443;-80
2022/08/24 00:39:45;;;;;;;11.68;6.07;;;;;;;;;;5042970;28;20032;-79
2022/08/24 00:42:11;;;;;;;9.20;6.03;;;;;;;;;;5024075;28;20033;-82
2022/08/24 00:44:36;;;;;;;9.07;6.20;;;;;;;;;;5021469;28;20064;-81
2022/08/24 00:47:03;;;;;;;14.18;6.85;;;;;;;;;;5040913;28;20380;-80
2022/08/24 00:49:34;;;;;;;11.50;6.05;;;;;;;;;;5038089;28;20025;-82
2022/08/24 00:51:59;;;;;;;12.07;6.55;;;;;;;;;;5023643;28;20041;-80
2022/08/24 00:54:25;;;;;;;9.70;6.40;;;;;;;;;;5041411;28;20459;-80
2022/08/24 00:56:52;;;;;;;11.77;6.07;;;;;;;;;;5033771;28;20021;-79
2022/08/24 00:59:21;;;;;;;11.38;6.18;;;;;;;;;;5030662;28;20091;-79
2022/08/24 01:01:47;;;;;;;12.48;6.53;;;;;;;;;;5016693;28;20024;-80
2022/08/24 01:04:16;;;;;;;7.05;5.80;;;;;;;;;;5033076;28;20536;-80
2022/08/24 01:06:42;;;;;;;8.82;6.00;;;;;;;;;;5033827;28;20388;-81
2022/08/24 01:09:07;;;;;;;10.55;6.28;;;;;;;;;;5017068;28;20036;-80
2022/08/24 01:11:34;;;;;;;10.88;6.63;;;;;;;;;;5001446;28;20048;-80
2022/08/24 01:14:01;;;;;;;9.10;6.53;;;;;;;;;;5017979;28;20040;-80
2022/08/24 01:19:26;;;;;;;11.57;6.20;;;;;;;;;;5033541;28;20064;-79
2022/08/24 01:22:02;;;;;;;10.52;6.57;;;;;;;;;;5022399;28;20056;-80
2022/08/24 01:24:28;;;;;;;9.60;6.80;;;;;;;;;;5027752;28;20404;-79
2022/08/24 01:26:53;;;;;;;11.02;6.68;;;;;;;;;;5016416;28;20010;-79
2022/08/24 01:29:21;;;;;;;11.07;7.05;;;;;;;;;;5015844;28;20033;-80
2022/08/24 01:31:47;;;;;;;11.25;7.18;;;;;;;;;;5047329;28;20075;-80
2022/08/24 01:34:12;;;;;;;12.82;7.72;;;;;;;;;;5034196;28;20065;-79
2022/08/24 01:36:39;;;;;;;11.32;7.00;;;;;;;;;;5033469;28;20053;-80
2022/08/24 01:39:07;;;;;;;10.52;7.32;;;;;;;;;;5032312;28;20063;-80
2022/08/24 01:41:33;;;;;;;9.52;6.78;;;;;;;;;;5033867;28;20029;-80
2022/08/24 01:43:59;;;;;;;13.15;7.40;;;;;;;;;;5046768;28;20041;-79
2022/08/24 01:46:26;;;;;;;11.32;6.60;;;;;;;;;;5033793;28;20074;-79
2022/08/24 01:48:52;;;;;;;8.95;7.03;;;;;;;;;;5047719;28;20496;-79
2022/08/24 01:51:19;;;;;;;8.02;6.60;;;;;;;;;;5050937;28;20483;-80
2022/08/24 01:53:46;;;;;;;14.10;7.55;;;;;;;;;;5033438;28;20037;-80
2022/08/24 01:56:12;;;;;;;13.23;7.20;;;;;;;;;;5034287;28;20480;-80
2022/08/24 01:58:42;;;;;;;10.40;6.85;;;;;;;;;;5048518;28;20408;-81
2022/08/24 02:01:08;;;;;;;11.55;7.65;;;;;;;;;;5050381;28;20454;-81
2022/08/24 02:03:34;;;;;;;10.88;7.10;;;;;;;;;;5039064;28;20026;-80
2022/08/24 02:06:01;;;;;;;10.70;7.50;;;;;;;;;;5031446;28;20037;-80
2022/08/24 02:08:27;;;;;;;11.00;6.95;;;;;;;;;;5032305;28;20078;-80
2022/08/24 02:10:53;;;;;;;12.07;7.30;;;;;;;;;;5032236;28;20125;-79
2022/08/24 02:13:18;;;;;;;10.93;7.07;;;;;;;;;;5034095;28;20072;-80
2022/08/24 02:15:44;;;;;;;12.25;6.75;;;;;;;;;;5038918;28;20041;-79
2022/08/24 02:18:10;;;;;;;10.85;6.97;;;;;;;;;;5032808;28;20112;-79
2022/08/24 02:20:36;;;;;;;10.98;7.10;;;;;;;;;;5013028;28;20056;-79
2022/08/24 02:23:03;;;;;;;11.13;7.20;;;;;;;;;;5016215;28;20029;-80
2022/08/24 02:25:29;;;;;;;13.30;7.32;;;;;;;;;;5048888;28;20386;-79
2022/08/24 02:27:56;;;;;;;11.82;7.90;;;;;;;;;;5015894;28;20027;-79
2022/08/24 02:30:22;;;;;;;13.20;7.93;;;;;;;;;;5032880;28;20377;-79
2022/08/24 02:32:48;;;;;;;12.15;8.02;;;;;;;;;;5019187;28;20031;-80
2022/08/24 02:35:13;;;;;;;10.75;7.32;;;;;;;;;;5031678;28;20109;-80
2022/08/24 02:37:39;;;;;;;14.13;8.07;;;;;;;;;;5015490;28;20086;-79
2022/08/24 02:40:06;;;;;;;13.18;7.80;;;;;;;;;;5023997;28;20120;-81
2022/08/24 02:42:32;;;;;;;9.10;7.20;;;;;;;;;;5043013;28;20068;-81
2022/08/24 02:44:59;;;;;;;11.70;7.78;;;;;;;;;;5030184;28;20091;-80
2022/08/24 02:47:24;;;;;;;14.52;7.85;;;;;;;;;;5034348;28;20028;-80
2022/08/24 02:49:51;;;;;;;13.75;7.68;;;;;;;;;;5037255;28;20501;-80
2022/08/24 02:52:17;;;;;;;12.15;7.63;;;;;;;;;;5034957;28;20074;-80
2022/08/24 02:54:42;;;;;;;10.23;7.53;;;;;;;;;;5047363;28;20408;-80
2022/08/24 02:57:08;;;;;;;12.70;7.82;;;;;;;;;;5031324;28;20025;-80
2022/08/24 02:59:33;;;;;;;10.20;7.30;;;;;;;;;;5031508;28;20038;-81
2022/08/24 03:01:59;;;;;;;13.20;7.63;;;;;;;;;;5042374;28;20026;-80
2022/08/24 03:04:24;;;;;;;13.07;7.85;;;;;;;;;;5018588;28;20520;-81
2022/08/24 03:06:50;;;;;;;11.40;7.18;;;;;;;;;;5012452;28;20034;-80
2022/08/24 03:09:16;;;;;;;13.55;7.43;;;;;;;;;;5026126;28;20033;-80
2022/08/24 03:11:42;;;;;;;12.20;7.43;;;;;;;;;;5031852;28;20116;-80
2022/08/24 03:14:07;;;;;;;13.30;7.28;;;;;;;;;;5013446;28;20045;-79
2022/08/24 03:16:33;;;;;;;11.40;7.00;;;;;;;;;;5033544;28;20459;-79
2022/08/24 03:18:59;;;;;;;14.45;7.50;;;;;;;;;;5014875;28;20029;-80
2022/08/24 03:21:27;;;;;;;11.85;7.75;;;;;;;;;;5015788;28;20052;-79
2022/08/24 03:23:54;;;;;;;14.60;8.15;;;;;;;;;;5015123;28;20037;-80
2022/08/24 03:26:19;;;;;;;14.98;7.90;;;;;;;;;;5015154;28;20040;-80
2022/08/24 03:28:45;;;;;;;15.25;8.07;;;;;;;;;;5031000;28;20036;-81
2022/08/24 03:31:12;;;;;;;10.45;7.32;;;;;;;;;;4999678;28;20030;-80
2022/08/24 03:33:38;;;;;;;14.55;7.75;;;;;;;;;;5018959;28;20042;-80
2022/08/24 03:36:04;;;;;;;10.23;7.75;;;;;;;;;;5049083;28;20070;-80
2022/08/24 03:38:29;;;;;;;14.48;6.75;;;;;;;;;;5039918;28;20160;-81
2022/08/24 03:40:55;;;;;;;13.15;7.05;;;;;;;;;;5036960;28;20033;-79
2022/08/24 03:46:06;;;;;;;10.77;7.32;;;;;;;;;;5013874;28;20443;-80
2022/08/24 03:48:32;;;;;;;11.93;7.25;;;;;;;;;;5028424;28;20028;-80
2022/08/24 03:50:57;;;;;;;12.00;7.70;;;;;;;;;;5019252;28;20033;-79
2022/08/24 03:53:23;;;;;;;10.18;7.43;;;;;;;;;;5038483;28;20022;-80
2022/08/24 03:55:51;;;;;;;16.27;6.93;;;;;;;;;;5018550;28;20424;-80
2022/08/24 03:58:17;;;;;;;12.18;7.10;;;;;;;;;;5035366;28;20192;-79
2022/08/24 04:00:42;;;;;;;11.85;7.13;;;;;;;;;;5034721;28;20065;-80
2022/08/24 04:03:11;;;;;;;12.60;7.03;;;;;;;;;;5031093;28;20030;-81
2022/08/24 04:05:37;;;;;;;13.65;6.95;;;;;;;;;;5026790;28;20128;-80
2022/08/24 04:08:03;;;;;;;16.38;6.93;;;;;;;;;;5034732;28;20021;-80
2022/08/24 04:10:28;;;;;;;11.68;6.97;;;;;;;;;;5034626;28;20033;-79
2022/08/24 04:12:54;;;;;;;12.43;6.90;;;;;;;;;;5035076;28;20450;-81
2022/08/24 04:15:20;;;;;;;11.63;6.63;;;;;;;;;;5018045;28;20029;-80
2022/08/24 04:17:45;;;;;;;13.20;7.10;;;;;;;;;;5001675;28;20063;-80
2022/08/24 04:20:11;;;;;;;15.27;7.38;;;;;;;;;;5018263;28;20033;-80
2022/08/24 04:22:38;;;;;;;15.65;7.68;;;;;;;;;;5042596;28;20033;-81
2022/08/24 04:25:04;;;;;;;11.75;7.50;;;;;;;;;;5041012;28;20041;-79
2022/08/24 04:27:30;;;;;;;14.57;8.32;;;;;;;;;;5047641;28;20407;-79
2022/08/24 04:29:55;;;;;;;16.60;7.70;;;;;;;;;;5050348;28;20035;-81
2022/08/24 04:32:22;;;;;;;12.95;7.85;;;;;;;;;;5045695;28;20033;-79
2022/08/24 04:34:49;;;;;;;15.82;9.10;;;;;;;;;;5002136;28;20037;-79
2022/08/24 04:37:15;;;;;;;16.25;7.85;;;;;;;;;;5050455;28;20076;-81
2022/08/24 04:39:41;;;;;;;15.63;7.80;;;;;;;;;;5022491;28;20495;-80
2022/08/24 04:42:19;;;;;;;14.68;7.78;;;;;;;;;;5061366;28;20512;-79
2022/08/24 04:44:45;;;;;;;16.90;9.13;;;;;;;;;;5045731;28;20060;-80
2022/08/24 04:47:11;;;;;;;13.55;8.23;;;;;;;;;;5048921;28;20021;-81
2022/08/24 04:49:37;;;;;;;13.27;7.80;;;;;;;;;;5037604;28;20537;-81
2022/08/24 04:52:03;;;;;;;17.95;8.55;;;;;;;;;;5043949;28;20036;-80
2022/08/24 04:54:31;;;;;;;18.83;8.40;;;;;;;;;;5035887;28;20029;-81
2022/08/24 04:57:13;;;;;;;15.52;7.95;;;;;;;;;;5032860;28;20090;-80
2022/08/24 04:59:40;;;;;;;15.25;7.68;;;;;;;;;;5033713;28;20484;-80
2022/08/24 05:02:06;;;;;;;14.93;8.13;;;;;;;;;;5041630;28;20025;-80
2022/08/24 05:04:31;;;;;;;16.30;8.20;;;;;;;;;;5023490;28;20036;-80
2022/08/24 05:06:57;;;;;;;17.45;8.20;;;;;;;;;;5041714;28;20025;-79
2022/08/24 05:09:23;;;;;;;16.75;8.27;;;;;;;;;;5044970;28;20033;-81
2022/08/24 05:11:49;;;;;;;16.92;8.40;;;;;;;;;;5044718;28;20151;-81
2022/08/24 05:14:19;;;;;;;18.58;8.02;;;;;;;;;;5047450;28;20041;-79
2022/08/24 05:16:45;;;;;;;12.30;7.50;;;;;;;;;;5023513;28;20500;-80
2022/08/24 05:19:11;;;;;;;20.38;7.53;;;;;;;;;;5027901;28;20026;-79
2022/08/24 05:21:38;;;;;;;16.50;7.50;;;;;;;;;;5032927;28;20025;-79
2022/08/24 05:24:04;;;;;;;32.53;7.53;;;;;;;;;;5029164;28;20421;-80
2022/08/24 05:26:32;;;;;;;24.17;7.20;;;;;;;;;;5036033;28;20021;-82
2022/08/24 05:28:59;;;;;;;26.40;8.88;;;;;;;;;;5037592;28;20072;-79
2022/08/24 05:31:29;;;;;;;32.13;8.23;;;;;;;;;;5034988;28;20041;-79
2022/08/24 05:33:58;;;;;;;21.65;7.20;;;;;;;;;;5021127;28;20037;-79
2022/08/24 05:36:29;;;;;;;13.18;5.90;;;;;;;;;;5000533;28;20107;-80
2022/08/24 05:38:57;;;;;;;11.40;5.85;;;;;;;;;;5016386;28;20426;-79
2022/08/24 05:41:24;;;;;;;11.65;5.78;;;;;;;;;;5021230;28;20037;-81
2022/08/24 05:43:57;;;;;;;14.85;7.63;;;;;;;;;;5032265;28;20531;-81
2022/08/24 05:46:23;;;;;;;22.02;11.05;;;;;;;;;;5027854;28;20060;-80
2022/08/24 05:48:50;;;;;;;13.10;6.25;;;;;;;;;;5012065;28;20025;-82
2022/08/24 05:51:36;;;;;;;15.95;5.22;;;;;;;;;;5021522;28;20175;-80
2022/08/24 05:54:05;;;;;;;9.25;4.78;;;;;;;;;;5050360;28;20057;-78
2022/08/24 05:56:49;;;;;;;10.77;4.57;;;;;;;;;;5009717;28;20048;-80
2022/08/24 05:59:16;;;;;;;10.32;4.60;;;;;;;;;;5022929;28;20033;-81
2022/08/24 06:01:43;;;;;;;13.90;4.50;;;;;;;;;;5022626;28;20017;-80
2022/08/24 06:04:08;;;;;;;10.55;5.28;;;;;;;;;;5031763;28;20526;-78
2022/08/24 06:06:34;;;;;;;11.13;5.63;;;;;;;;;;5033690;28;20059;-80
2022/08/24 06:09:00;;;;;;;12.63;4.70;;;;;;;;;;5016150;28;20037;-79
2022/08/24 06:11:29;;;;;;;12.77;4.70;;;;;;;;;;5016316;28;20093;-79
2022/08/24 06:13:56;;;;;;;9.95;4.78;;;;;;;;;;5015756;28;20048;-83
2022/08/24 06:16:23;;;;;;;12.13;4.90;;;;;;;;;;5025954;28;20025;-79
2022/08/24 06:18:50;;;;;;;10.57;4.60;;;;;;;;;;5032681;28;20040;-79
2022/08/24 06:21:20;;;;;;;15.15;5.10;;;;;;;;;;4999814;28;20124;-78
2022/08/24 06:23:45;;;;;;;11.50;4.65;;;;;;;;;;4999493;28;20518;-78
2022/08/24 06:28:55;;;;;;;7.82;4.57;;;;;;;;;;5042907;28;20029;-79
2022/08/24 06:31:23;;;;;;;11.45;4.85;;;;;;;;;;5032325;28;20029;-79
2022/08/24 06:33:50;;;;;;;10.57;4.07;;;;;;;;;;5016252;28;20029;-80
2022/08/24 06:36:16;;;;;;;9.75;4.07;;;;;;;;;;4999384;28;20022;-79
2022/08/24 06:38:43;;;;;;;10.48;4.32;;;;;;;;;;5033289;28;20041;-79
2022/08/24 06:41:09;;;;;;;9.00;4.20;;;;;;;;;;5033611;28;20057;-78
2022/08/24 06:43:37;;;;;;;9.90;4.13;;;;;;;;;;5019405;28;20033;-81
2022/08/24 06:46:09;;;;;;;13.25;4.45;;;;;;;;;;5002557;28;20049;-79
2022/08/24 06:48:39;;;;;;;9.05;4.35;;;;;;;;;;5018648;28;20039;-80
2022/08/24 06:51:09;;;;;;;7.90;4.00;;;;;;;;;;5000208;28;20132;-79
2022/08/24 06:53:36;;;;;;;9.23;3.83;;;;;;;;;;5034774;28;20087;-80
2022/08/24 06:56:02;;;;;;;9.13;3.83;;;;;;;;;;5016972;28;20488;-78
2022/08/24 06:58:31;;;;;;;9.73;3.95;;;;;;;;;;5035915;28;20029;-79
2022/08/24 07:00:58;;;;;;;8.57;3.50;;;;;;;;;;5033170;28;20447;-80
2022/08/24 07:03:23;;;;;;;7.97;3.70;;;;;;;;;;5013323;28;20091;-79
2022/08/24 07:05:55;;;;;;;8.68;3.30;;;;;;;;;;5028810;28;20033;-80
2022/08/24 07:08:35;;;;;;;7.88;3.30;;;;;;;;;;5008231;28;20554;-79
2022/08/24 07:11:01;;;;;;;9.13;3.35;;;;;;;;;;5019060;28;20128;-77
2022/08/24 07:13:28;;;;;;;8.15;3.50;;;;;;;;;;5003065;28;20030;-80
2022/08/24 07:15:54;;;;;;;9.05;3.60;;;;;;;;;;5033961;28;20056;-80
2022/08/24 07:18:20;;;;;;;14.57;3.30;;;;;;;;;;5020220;28;20025;-78
2022/08/24 07:20:48;;;;;;;9.35;3.70;;;;;;;;;;5020585;28;20116;-79
2022/08/24 07:23:20;;;;;;;7.20;3.85;;;;;;;;;;5017062;28;20502;-80
2022/08/24 07:25:46;;;;;;;8.07;3.50;;;;;;;;;;5031478;28;20033;-80
2022/08/24 07:28:11;;;;;;;7.85;3.20;;;;;;;;;;5058958;28;20155;-79
2022/08/24 07:30:39;;;;;;;9.23;3.28;;;;;;;;;;5033611;28;20059;-79
2022/08/24 07:33:04;;;;;;;7.55;3.63;;;;;;;;;;5031058;28;20044;-80
2022/08/24 07:35:33;;;;;;;5.45;2.92;;;;;;;;;;5008670;28;20033;-82
2022/08/24 07:38:00;;;;;;;6.07;2.85;;;;;;;;;;5030762;28;20056;-80
2022/08/24 07:40:28;;;;;;;9.30;3.15;;;;;;;;;;5033014;28;20028;-78
2022/08/24 07:42:54;;;;;;;6.78;3.13;;;;;;;;;;5016966;28;20021;-79
2022/08/24 07:45:19;;;;;;;8.23;3.40;;;;;;;;;;5030208;28;20036;-79
2022/08/24 07:47:49;;;;;;;10.00;3.55;;;;;;;;;;5012855;28;20399;-79
2022/08/24 07:50:29;;;;;;;11.75;3.13;;;;;;;;;;5034247;28;20029;-78
2022/08/24 07:52:55;;;;;;;7.28;2.83;;;;;;;;;;5036629;28;20056;-80
2022/08/24 07:55:21;;;;;;;11.25;3.13;;;;;;;;;;5007687;28;20060;-78
2022/08/24 07:57:46;;;;;;;7.85;2.80;;;;;;;;;;5045144;28;20025;-79
2022/08/24 08:00:12;;;;;;;11.30;3.20;;;;;;;;;;5034400;28;20025;-79
2022/08/24 08:02:46;;;;;;;6.45;2.70;;;;;;;;;;5020179;28;20044;-79
2022/08/24 08:05:16;;;;;;;9.32;3.10;;;;;;;;;;5018482;28;20055;-80
2022/08/24 08:07:46;;;;;;;8.25;2.72;;;;;;;;;;5035665;28;20041;-85
2022/08/24 08:10:12;;;;;;;8.05;2.80;;;;;;;;;;5039235;28;20035;-81
2022/08/24 08:12:37;;;;;;;8.52;3.42;;;;;;;;;;5025446;28;20468;-80
2022/08/24 08:15:03;;;;;;;6.40;3.00;;;;;;;;;;5054095;28;20159;-80
2022/08/24 08:17:29;;;;;;;7.43;3.00;;;;;;;;;;5035477;28;20033;-79
2022/08/24 08:19:55;;;;;;;6.78;2.78;;;;;;;;;;5037753;28;20107;-80
2022/08/24 08:25:25;;;;;;;6.45;2.70;;;;;;;;;;5035381;28;20118;-80
2022/08/24 08:27:50;;;;;;;4.55;2.50;;;;;;;;;;5019587;28;20033;-80
2022/08/24 08:30:16;;;;;;;6.85;2.65;;;;;;;;;;5036502;28;20026;-79
2022/08/24 08:32:42;;;;;;;7.13;2.95;;;;;;;;;;5019666;28;20037;-79
2022/08/24 08:35:08;;;;;;;6.63;2.38;;;;;;;;;;5050743;28;20458;-79
2022/08/24 08:37:35;;;;;;;12.18;2.85;;;;;;;;;;5019312;28;20140;-79
2022/08/24 08:40:01;;;;;;;5.78;2.38;;;;;;;;;;5048052;28;20119;-81
2022/08/24 08:42:32;;;;;;;6.50;2.53;;;;;;;;;;5018849;28;20028;-79
2022/08/24 08:45:00;;;;;;;5.70;2.22;;;;;;;;;;5026232;28;20029;-81
2022/08/24 08:47:32;;;;;;;5.25;2.58;;;;;;;;;;5034411;28;20069;-80
2022/08/24 08:50:14;;;;;;;5.80;2.35;;;;;;;;;;5041061;28;20048;-81
2022/08/24 08:53:06;;;;;;;6.30;2.28;;;;;;;;;;5043465;28;20459;-81
2022/08/24 08:55:35;;;;;;;9.15;3.30;;;;;;;;;;5002222;28;20136;-81
2022/08/24 08:58:10;;;;;;;7.65;3.97;;;;;;;;;;5027918;28;20064;-80
2022/08/24 09:00:36;;;;;;;8.13;3.25;;;;;;;;;;5048419;28;20039;-84
2022/08/24 09:03:15;;;;;;;7.35;4.13;;;;;;;;;;5046917;28;20069;-81
2022/08/24 09:05:56;;;;;;;8.55;3.33;;;;;;;;;;5044998;28;20029;-80
2022/08/24 09:08:34;;;;;;;8.55;3.58;;;;;;;;;;5017449;28;20041;-83
2022/08/24 09:11:17;;;;;;;8.18;4.47;;;;;;;;;;5020020;28;20476;-80
2022/08/24 09:13:57;;;;;;;7.80;4.07;;;;;;;;;;5010380;28;20390;-79
2022/08/24 09:16:37;;;;;;;8.02;3.42;;;;;;;;;;5034313;28;20092;-81
2022/08/24 09:19:09;;;;;;;;;;;;;;;;;;5037830;28;20032;-84
2022/08/24 09:21:41;;;;;;;10.07;4.15;;;;;;;;;;5039443;28;20000;-80
2022/08/24 09:24:12;;;;;;;8.85;4.38;;;;;;;;;;5067757;28;20021;-81
2022/08/24 09:26:54;;;;;;;7.03;3.80;;;;;;;;;;5048395;28;20030;-79
2022/08/24 09:29:27;;;;;;;8.82;4.63;;;;;;;;;;5042888;28;20547;-84
2022/08/24 09:31:53;;;;;;;9.05;4.70;;;;;;;;;;5043008;28;20120;-81
2022/08/24 09:34:24;;;;;;;5.28;3.80;;;;;;;;;;5039548;28;20540;-82
2022/08/24 09:36:56;;;;;;;10.50;4.78;;;;;;;;;;5042834;28;20024;-80
2022/08/24 09:39:25;;;;;;;6.53;3.78;;;;;;;;;;5050982;28;20056;-80
2022/08/24 09:41:59;;;;;;;6.55;3.85;;;;;;;;;;5047516;28;20040;-79
2022/08/24 09:44:25;;;;;;;8.73;4.30;;;;;;;;;;5044479;28;20450;-84
2022/08/24 09:46:57;;;;;;;6.15;4.00;;;;;;;;;;5021726;28;20025;-85
2022/08/24 09:49:34;;;;;;;8.65;4.13;;;;;;;;;;5047776;28;20039;-80
2022/08/24 09:52:00;;;;;;;7.40;4.40;;;;;;;;;;5034474;28;20067;-80
2022/08/24 09:54:26;;;;;;;6.22;4.03;;;;;;;;;;5044916;28;20064;-79
2022/08/24 09:57:00;;;;;;;12.10;4.30;;;;;;;;;;5033304;28;20043;-82
2022/08/24 09:59:39;;;;;;;6.18;4.05;;;;;;;;;;5045681;28;20048;-80
2022/08/24 10:02:21;;;;;;;6.07;4.00;;;;;;;;;;5033580;28;20038;-81
2022/08/24 10:05:02;;;;;;;9.90;3.90;;;;;;;;;;5003053;28;20083;-80
2022/08/24 10:07:34;;;;;;;8.05;4.15;;;;;;;;;;5035374;28;20068;-80
2022/08/24 10:10:08;;;;;;;7.82;3.47;;;;;;;;;;5054610;28;20025;-83
2022/08/24 10:12:37;;;;;;;6.97;4.10;;;;;;;;;;5038554;28;20048;-79
2022/08/24 10:15:03;;;;;;;9.18;4.00;;;;;;;;;;5039209;28;20037;-80
2022/08/24 10:17:44;;;;;;;8.68;3.13;;;;;;;;;;5035561;28;20075;-79
2022/08/24 10:20:15;;;;;;;6.35;2.75;;;;;;;;;;5029036;28;20037;-79
2022/08/24 10:22:51;;;;;;;11.15;2.88;;;;;;;;;;5041813;28;20033;-80
2022/08/24 10:25:29;;;;;;;7.30;2.63;;;;;;;;;;5001062;28;20034;-80
2022/08/24 10:28:21;;;;;;;6.28;2.50;;;;;;;;;;5035100;28;20034;-81
2022/08/24 10:31:03;;;;;;;5.47;2.92;;;;;;;;;;5026094;28;20029;-82
2022/08/24 10:33:48;;;;;;;8.23;3.00;;;;;;;;;;5017288;28;20041;-81
2022/08/24 10:36:13;;;;;;;5.97;3.08;;;;;;;;;;5034205;28;20516;-82
2022/08/24 10:41:23;;;;;;;6.93;2.63;;;;;;;;;;5027768;28;20488;-81
2022/08/24 10:43:57;;;;;;;7.40;2.40;;;;;;;;;;5034258;28;20075;-81
2022/08/24 10:46:42;;;;;;;7.43;2.55;;;;;;;;;;5001350;28;20132;-80
2022/08/24 10:49:07;;;;;;;6.75;2.30;;;;;;;;;;5019041;28;20507;-82
2022/08/24 10:51:36;;;;;;;6.30;2.35;;;;;;;;;;5034198;28;20025;-79
2022/08/24 10:54:02;;;;;;;7.38;2.47;;;;;;;;;;5033244;28;20041;-80
2022/08/24 10:56:37;;;;;;;5.03;1.90;;;;;;;;;;5033323;28;20037;-82
2022/08/24 10:59:03;;;;;;;6.10;2.35;;;;;;;;;;5017322;28;20033;-81
2022/08/24 11:01:30;;;;;;;4.45;2.80;;;;;;;;;;5033698;28;20025;-84
2022/08/24 11:03:55;;;;;;;5.28;2.13;;;;;;;;;;5018044;28;20041;-82
2022/08/24 11:06:22;;;;;;;4.15;2.40;;;;;;;;;;5033051;28;20404;-82
2022/08/24 11:08:55;;;;;;;5.05;1.90;;;;;;;;;;5019241;28;20411;-81
2022/08/24 11:11:22;;;;;;;4.72;2.85;;;;;;;;;;5017299;28;20042;-82
2022/08/24 11:13:52;;;;;;;7.13;2.30;;;;;;;;;;5028888;28;20464;-83
2022/08/24 11:16:25;;;;;;;5.32;1.90;;;;;;;;;;5028335;28;20034;-85
2022/08/24 11:18:52;;;;;;;6.70;1.90;;;;;;;;;;5019736;28;20041;-82
2022/08/24 11:21:36;;;;;;;4.85;1.98;;;;;;;;;;5017543;28;20142;-83
2022/08/24 11:24:31;;;;;;;8.93;2.00;;;;;;;;;;5037144;28;20079;-81
2022/08/24 11:26:57;;;;;;;3.35;1.90;;;;;;;;;;5038172;28;20049;-82
2022/08/24 11:29:30;;;;;;;5.60;1.90;;;;;;;;;;5035608;28;20037;-82
2022/08/24 11:31:55;;;;;;;6.80;1.90;;;;;;;;;;5018913;28;20044;-85
2022/08/24 11:34:32;;;;;;;4.65;1.83;;;;;;;;;;5002935;28;20033;-81
2022/08/24 11:36:57;;;;;;;4.60;1.85;;;;;;;;;;5035257;28;20115;-82
2022/08/24 11:39:28;;;;;;;8.13;2.20;;;;;;;;;;5014776;28;20525;-82
2022/08/24 11:42:14;;;;;;;6.20;1.70;;;;;;;;;;5065081;28;20075;-82
2022/08/24 11:44:40;;;;;;;4.80;1.85;;;;;;;;;;5038518;28;20040;-81
2022/08/24 11:47:15;;;;;;;4.07;1.70;;;;;;;;;;5038048;28;20025;-81
2022/08/24 11:49:43;;;;;;;8.25;1.80;;;;;;;;;;5025831;28;20571;-81
2022/08/24 11:52:12;;;;;;;9.63;2.10;;;;;;;;;;5044166;28;20400;-81
2022/08/24 11:55:00;;;;;;;7.45;1.95;;;;;;;;;;5039433;28;20115;-82
2022/08/24 11:57:33;;;;;;;8.73;2.20;;;;;;;;;;5038333;28;20038;-82
2022/08/24 12:00:07;;;;;;;3.40;1.70;;;;;;;;;;5029476;28;20033;-82
2022/08/24 12:02:40;;;;;;;6.25;1.70;;;;;;;;;;5047417;28;20095;-81
2022/08/24 12:05:25;;;;;;;5.72;2.00;;;;;;;;;;5041355;28;20029;-82
2022/08/24 12:08:00;;;;;;;4.43;1.70;;;;;;;;;;5039009;28;20029;-85
2022/08/24 12:10:36;;;;;;;10.88;1.98;;;;;;;;;;5051353;28;20037;-81
2022/08/24 12:13:20;;;;;;;4.68;1.92;;;;;;;;;;5035153;28;20033;-81
2022/08/24 12:15:48;;;;;;;6.10;1.70;;;;;;;;;;5044366;28;20056;-86
2022/08/24 12:18:23;;;;;;;6.43;1.75;;;;;;;;;;5010488;28;20026;-80
2022/08/24 12:20:48;;;;;;;5.25;1.58;;;;;;;;;;5045610;28;20029;-87
2022/08/24 12:23:46;;;;;;;5.38;1.60;;;;;;;;;;5017683;28;20035;-85
2022/08/24 12:26:24;;;;;;;3.53;1.58;;;;;;;;;;5029921;28;20037;-87
2022/08/24 12:28:51;;;;;;;3.95;1.80;;;;;;;;;;5024790;28;20041;-82
2022/08/24 12:31:18;;;;;;;3.70;1.77;;;;;;;;;;5042257;28;20028;-81
2022/08/24 12:33:45;;;;;;;3.13;1.58;;;;;;;;;;5009955;28;20475;-82
2022/08/24 12:36:20;;;;;;;5.40;2.00;;;;;;;;;;5066516;28;20481;-84
2022/08/24 12:38:48;;;;;;;8.73;2.00;;;;;;;;;;5042030;28;20053;-82
2022/08/24 12:41:18;;;;;;;5.40;1.80;;;;;;;;;;5030701;28;20041;-85
2022/08/24 12:43:47;;;;;;;6.35;1.83;;;;;;;;;;5026365;28;20484;-83
2022/08/24 12:46:13;;;;;;;4.10;1.67;;;;;;;;;;5048937;28;20025;-83
2022/08/24 12:48:44;;;;;;;3.42;1.85;;;;;;;;;;5044947;28;20033;-84
2022/08/24 12:51:13;;;;;;;5.25;1.92;;;;;;;;;;5028206;28;20035;-82
2022/08/24 12:53:52;;;;;;;8.65;1.70;;;;;;;;;;5038959;28;20021;-81
2022/08/24 12:56:33;;;;;;;5.90;2.00;;;;;;;;;;5040008;28;20450;-83
2022/08/24 12:58:59;;;;;;;5.00;1.70;;;;;;;;;;5029474;28;20044;-83
2022/08/24 13:01:26;;;;;;;4.70;1.85;;;;;;;;;;5044139;28;20489;-83
2022/08/24 13:04:06;;;;;;;6.38;1.70;;;;;;;;;;5038408;28;20140;-82
2022/08/24 13:06:47;;;;;;;6.47;1.90;;;;;;;;;;5021318;28;20054;-81
2022/08/24 13:09:14;;;;;;;4.30;1.70;;;;;;;;;;5020683;28;20083;-82
2022/08/24 13:11:40;;;;;;;4.13;1.27;;;;;;;;;;5004318;28;20500;-81
2022/08/24 13:14:17;;;;;;;7.00;1.95;;;;;;;;;;5021233;28;20068;-84
2022/08/24 13:16:52;;;;;;;4.78;1.40;;;;;;;;;;5021726;28;20083;-84
2022/08/24 13:19:32;;;;;;;4.68;1.70;;;;;;;;;;5037270;28;20385;-82
2022/08/24 13:22:08;;;;;;;6.72;1.80;;;;;;;;;;5053992;28;20033;-81
2022/08/24 13:24:33;;;;;;;6.18;1.60;;;;;;;;;;5035322;28;20044;-81
2022/08/24 13:27:12;;;;;;;6.38;1.90;;;;;;;;;;5036359;28;20033;-81
2022/08/24 13:29:41;;;;;;;5.90;1.50;;;;;;;;;;5023818;28;20033;-81
2022/08/24 13:32:07;;;;;;;3.00;1.42;;;;;;;;;;5034454;28;20030;-80
2022/08/24 13:34:40;;;;;;;4.53;1.50;;;;;;;;;;5025697;28;20376;-81
2022/08/24 13:37:10;;;;;;;4.22;1.90;;;;;;;;;;5036949;28;20090;-80
2022/08/24 13:39:41;;;;;;;4.20;1.50;;;;;;;;;;5023153;28;20033;-79
2022/08/24 13:42:09;;;;;;;6.07;1.60;;;;;;;;;;5027486;28;20029;-79
2022/08/24 13:44:53;;;;;;;5.72;2.05;;;;;;;;;;5046454;28;20037;-80
2022/08/24 13:47:19;;;;;;;3.67;1.50;;;;;;;;;;5045628;28;20029;-81
2022/08/24 13:49:50;;;;;;;5.35;1.58;;;;;;;;;;5045323;28;20489;-81
2022/08/24 13:52:22;;;;;;;5.95;1.63;;;;;;;;;;5041679;28;20037;-86
2022/08/24 13:54:53;;;;;;;5.43;2.10;;;;;;;;;;5070922;28;20037;-81
2022/08/24 13:57:54;;;;;;;4.28;1.83;;;;;;;;;;5019708;28;20033;-81
2022/08/24 14:00:29;;;;;;;4.47;1.70;;;;;;;;;;5016514;28;20057;-80
2022/08/24 14:03:13;;;;;;;4.53;1.77;;;;;;;;;;5037416;28;20050;-80
2022/08/24 14:05:41;;;;;;;7.28;2.00;;;;;;;;;;5041961;28;20029;-82
2022/08/24 14:08:13;;;;;;;6.53;1.85;;;;;;;;;;5037108;28;20032;-81
2022/08/24 14:10:50;;;;;;;10.45;2.75;;;;;;;;;;5042048;28;20422;-80
2022/08/24 14:13:21;;;;;;;4.53;2.10;;;;;;;;;;5032014;28;20033;-80
2022/08/24 14:17:50;;;;;;;8.82;2.70;;;;;;;;;;5033102;28;20028;-79
2022/08/24 14:18:43;;;;;;;10.48;2.63;;;;;;;;;;5052815;28;20095;-80
2022/08/24 14:21:09;;;;;;;8.90;2.57;;;;;;;;;;5048764;28;20033;-80
2022/08/24 14:23:51;;;;;;;8.52;3.03;;;;;;;;;;5044284;28;20040;-80
2022/08/24 14:26:32;;;;;;;5.57;2.30;;;;;;;;;;5034664;28;20040;-79
2022/08/24 14:29:19;;;;;;;9.60;2.55;;;;;;;;;;5030724;28;20127;-79
2022/08/24 14:32:01;;;;;;;7.63;2.30;;;;;;;;;;5044658;28;20495;-79
2022/08/24 14:34:52;;;;;;;8.68;3.25;;;;;;;;;;5037414;28;20506;-80
2022/08/24 14:37:33;;;;;;;6.18;2.53;;;;;;;;;;5030610;28;20074;-81
2022/08/24 14:40:02;;;;;;;6.15;2.60;;;;;;;;;;5038353;28;20037;-83
2022/08/24 14:42:37;;;;;;;7.28;2.40;;;;;;;;;;5029139;28;20028;-82
2022/08/24 14:45:12;;;;;;;4.43;2.20;;;;;;;;;;5029732;28;20527;-80
2022/08/24 14:47:54;;;;;;;4.60;2.50;;;;;;;;;;5026853;28;20033;-81
2022/08/24 14:50:24;;;;;;;6.53;2.35;;;;;;;;;;5048573;28;20033;-82
2022/08/24 14:53:08;;;;;;;5.47;2.20;;;;;;;;;;5030950;28;20063;-80
2022/08/24 14:55:39;;;;;;;9.73;2.38;;;;;;;;;;5045728;28;20488;-80
2022/08/24 14:58:05;;;;;;;4.47;2.65;;;;;;;;;;5029951;28;20029;-81
2022/08/24 15:00:49;;;;;;;5.63;2.60;;;;;;;;;;5030742;28;20067;-82
2022/08/24 15:03:33;;;;;;;3.88;2.13;;;;;;;;;;5039225;28;20493;-81
2022/08/24 15:06:06;;;;;;;5.95;2.50;;;;;;;;;;5055285;28;20148;-81
2022/08/24 15:08:34;;;;;;;8.27;2.28;;;;;;;;;;5036577;28;20120;-80